Time;durP1;ratioP1;P1;durP2;ratioP2;P2;SDS_P1;SDS_P2;PMS_P1;PMS_P2;Temp;Humidity;BMP_temperature;BMP_pressure;BME280_temperature;BME280_humidity;BME280_pressure;Samples;Min_cycle;Max_cycle;Signal;HPM_P1;HPM_P2
2022/02/02 00:00:55;;;;;;;8.15;6.05;;;;;;;1.08;100.00;96712.96;2142476;83;21079;-81
2022/02/02 00:03:57;;;;;;;14.85;8.30;;;;;;;1.09;100.00;96713.77;2147147;82;21022;-81
2022/02/02 00:07:06;;;;;;;18.48;11.73;;;;;;;1.10;100.00;96708.95;2151702;83;21573;-81
2022/02/02 00:10:14;;;;;;;16.17;10.53;;;;;;;1.08;100.00;96700.08;2152509;82;21601;-81
2022/02/02 00:13:08;;;;;;;12.20;6.83;;;;;;;1.08;100.00;96697.50;2152517;82;21058;-81
2022/02/02 00:19:28;;;;;;;9.68;5.78;;;;;;;1.11;100.00;96692.52;2147618;82;21012;-81
2022/02/02 00:22:16;;;;;;;8.53;5.15;;;;;;;1.10;100.00;96673.67;2138288;83;21107;-81
2022/02/02 00:25:20;;;;;;;12.30;6.78;;;;;;;1.09;100.00;96690.56;2180826;81;21613;-81
2022/02/02 00:28:20;;;;;;;9.65;5.42;;;;;;;1.09;100.00;96691.36;2196093;81;20987;-81
2022/02/02 00:31:28;;;;;;;6.42;4.55;;;;;;;1.09;100.00;96688.79;2193839;81;20986;-81
2022/02/02 00:34:29;;;;;;;10.10;4.70;;;;;;;1.10;100.00;96689.13;2197250;81;21571;-81
2022/02/02 00:37:29;;;;;;;13.30;5.75;;;;;;;1.09;100.00;96686.70;2197771;81;20982;-81
2022/02/02 00:40:31;;;;;;;12.80;6.47;;;;;;;1.09;100.00;96681.05;2197866;81;21062;-81
2022/02/02 00:43:32;;;;;;;14.47;6.95;;;;;;;1.11;100.00;96697.18;2197424;81;21033;-81
2022/02/02 00:46:33;;;;;;;16.70;6.53;;;;;;;1.14;100.00;96701.19;2192502;81;21030;-81
2022/02/02 00:49:35;;;;;;;11.68;5.42;;;;;;;1.16;100.00;96690.70;2206983;81;21516;-81
2022/02/02 00:52:36;;;;;;;33.42;19.07;;;;;;;1.20;100.00;96684.25;2207017;81;21044;-82
2022/02/02 00:55:37;;;;;;;99.45;41.83;;;;;;;1.21;100.00;96680.70;2207011;81;21019;-82
2022/02/02 00:58:38;;;;;;;39.48;12.80;;;;;;;1.20;100.00;96694.08;2207025;81;20994;-81
2022/02/02 01:01:39;;;;;;;18.50;7.30;;;;;;;1.21;100.00;96684.56;2205886;81;21018;-82
2022/02/02 01:04:39;;;;;;;18.57;7.03;;;;;;;1.22;100.00;96686.97;2206926;81;20998;-81
2022/02/02 01:11:17;;;;;;;13.85;6.58;;;;;;;1.28;100.00;96691.91;2188827;81;22181;-81
2022/02/02 01:20:48;;;;;;;15.40;6.42;;;;;;;1.39;100.00;96700.08;2201727;81;21005;-81
2022/02/02 01:30:17;;;;;;;12.35;5.22;;;;;;;1.48;100.00;96696.97;2188681;81;21064;-82
2022/02/02 01:33:18;;;;;;;8.78;3.58;;;;;;;1.51;100.00;96695.33;2188865;81;21526;-82
2022/02/02 01:36:19;;;;;;;16.25;5.55;;;;;;;1.55;100.00;96697.86;2189250;81;21033;-81
2022/02/02 01:39:24;;;;;;;11.55;5.85;;;;;;;1.58;100.00;96700.13;2189306;81;21075;-81
2022/02/02 01:42:25;;;;;;;12.28;5.78;;;;;;;1.60;100.00;96697.36;2188476;81;21323;-82
2022/02/02 01:45:36;;;;;;;55.67;31.15;;;;;;;1.60;100.00;96694.30;2188564;81;20996;-81
2022/02/02 01:48:49;;;;;;;18.07;6.22;;;;;;;1.62;100.00;96696.20;2188028;81;21005;-81
2022/02/02 01:55:01;;;;;;;16.93;6.03;;;;;;;1.61;100.00;96683.00;2206654;81;20946;-81
2022/02/02 01:58:12;;;;;;;14.33;4.58;;;;;;;1.64;100.00;96694.25;2199973;81;21535;-82
2022/02/02 02:01:06;;;;;;;18.50;7.03;;;;;;;1.66;100.00;96697.98;2188069;81;20973;-80
2022/02/02 02:04:07;;;;;;;13.45;5.08;;;;;;;1.67;100.00;96703.45;2188929;81;21011;-80
2022/02/02 02:07:08;;;;;;;11.12;5.00;;;;;;;1.66;100.00;96695.40;2203959;80;21045;-81
2022/02/02 02:10:09;;;;;;;10.18;4.00;;;;;;;1.69;100.00;96695.05;2210826;80;20982;-81
2022/02/02 02:13:16;;;;;;;14.03;4.05;;;;;;;1.70;100.00;96697.44;2210580;80;20962;-81
2022/02/02 02:16:13;;;;;;;6.67;3.58;;;;;;;1.69;100.00;96702.78;2208727;80;20965;-81
2022/02/02 02:19:13;;;;;;;11.15;3.70;;;;;;;1.68;100.00;96706.34;2206669;80;21400;-81
2022/02/02 02:22:16;;;;;;;13.75;4.62;;;;;;;1.70;100.00;96701.80;2189250;81;21044;-81
2022/02/02 02:25:17;;;;;;;14.90;3.98;;;;;;;1.71;100.00;96701.63;2188891;81;20993;-81
2022/02/02 02:28:36;;;;;;;11.97;4.50;;;;;;;1.72;100.00;96711.45;2188818;81;21080;-81
2022/02/02 02:31:37;;;;;;;9.10;5.97;;;;;;;1.74;100.00;96702.25;2207586;80;21001;-81
2022/02/02 02:37:59;;;;;;;23.60;8.45;;;;;;;1.70;100.00;96702.60;2210968;80;20966;-81
2022/02/02 02:57:22;;;;;;;8.55;3.83;;;;;;;1.63;100.00;96700.39;2208674;80;21005;-81
2022/02/02 03:30:07;;;;;;;21.82;7.28;;;;;;;1.77;100.00;96722.56;2209754;81;21520;-81
2022/02/02 03:59:03;;;;;;;5.58;3.87;;;;;;;1.81;100.00;96730.27;2130832;83;21044;-80
2022/02/02 04:11:32;;;;;;;20.20;7.92;;;;;;;1.83;100.00;96749.78;2121350;84;20110;-80
2022/02/02 04:17:53;;;;;;;5.03;4.35;;;;;;;1.74;100.00;96740.50;2117302;84;21070;-79
2022/02/02 05:00:47;;;;;;;4.67;3.50;;;;;;;1.81;100.00;96766.39;2053635;87;20192;-82
2022/02/02 05:03:40;;;;;;;3.60;3.05;;;;;;;1.80;100.00;96770.75;2050324;87;21111;-81
2022/02/02 05:06:34;;;;;;;5.33;3.58;;;;;;;1.84;100.00;96771.23;2050691;85;21121;-81
2022/02/02 05:23:17;;;;;;;11.53;6.42;;;;;;;1.89;100.00;96767.14;2107720;84;21008;-82
2022/02/02 05:26:36;;;;;;;10.58;5.25;;;;;;;1.88;100.00;96762.16;2105451;84;20984;-81
2022/02/02 05:45:10;;;;;;;6.62;4.35;;;;;;;2.00;100.00;96767.22;2150841;83;20975;-82
2022/02/02 05:51:22;;;;;;;5.55;4.10;;;;;;;2.05;100.00;96780.92;2151364;83;21003;-86
2022/02/02 05:54:15;;;;;;;8.73;4.95;;;;;;;2.08;100.00;96789.59;2149118;83;20992;-82
2022/02/02 05:57:16;;;;;;;8.13;4.65;;;;;;;2.09;100.00;96789.91;2151358;83;20999;-84
2022/02/02 06:00:17;;;;;;;7.60;4.03;;;;;;;2.10;100.00;96783.28;2151364;82;21016;-84
2022/02/02 06:03:18;;;;;;;4.50;3.47;;;;;;;2.10;100.00;96793.61;2151334;83;20999;-85
2022/02/02 06:06:19;;;;;;;5.62;4.05;;;;;;;2.13;100.00;96793.28;2154786;80;21020;-85
2022/02/02 06:09:20;;;;;;;7.33;4.12;;;;;;;2.15;100.00;96802.14;2188741;81;21064;-81
2022/02/02 06:12:22;;;;;;;7.87;3.98;;;;;;;2.15;100.00;96807.30;2188713;81;21483;-84
2022/02/02 06:15:24;;;;;;;6.12;3.98;;;;;;;2.14;100.00;96809.09;2188685;81;20977;-83
2022/02/02 06:18:27;;;;;;;7.37;4.42;;;;;;;2.13;100.00;96813.94;2188591;81;21072;-84
2022/02/02 06:21:27;;;;;;;7.65;4.12;;;;;;;2.12;100.00;96817.50;2188414;81;20964;-85
2022/02/02 06:24:28;;;;;;;9.68;5.28;;;;;;;2.11;100.00;96809.44;2188774;81;21503;-79
2022/02/02 06:27:29;;;;;;;9.85;4.58;;;;;;;2.13;100.00;96817.01;2188612;81;20992;-83
2022/02/02 06:30:30;;;;;;;11.18;4.53;;;;;;;2.15;100.00;96820.21;2188750;81;21571;-81
2022/02/02 06:33:31;;;;;;;9.38;5.65;;;;;;;2.18;100.00;96834.06;2188617;81;20953;-80
2022/02/02 06:36:32;;;;;;;8.00;4.42;;;;;;;2.22;100.00;96831.47;2188880;81;22089;-82
2022/02/02 06:39:32;;;;;;;7.12;3.70;;;;;;;2.27;100.00;96834.32;2188846;81;21011;-84
2022/02/02 06:42:33;;;;;;;13.38;4.95;;;;;;;2.30;100.00;96839.16;2188750;81;20992;-85
2022/02/02 06:45:34;;;;;;;8.45;4.80;;;;;;;2.32;100.00;96838.49;2188742;80;21168;-85
2022/02/02 06:48:35;;;;;;;14.60;5.00;;;;;;;2.39;100.00;96844.58;2190923;79;21526;-84
2022/02/02 06:51:47;;;;;;;7.17;4.33;;;;;;;2.43;100.00;96844.53;2207454;80;20989;-85
2022/02/02 06:54:52;;;;;;;8.83;3.62;;;;;;;2.49;100.00;96843.05;2201677;80;21046;-89
2022/02/02 06:57:50;;;;;;;9.30;4.20;;;;;;;2.53;100.00;96859.30;2188076;81;20992;-87
2022/02/02 07:01:13;;;;;;;9.85;3.95;;;;;;;2.55;100.00;96852.67;2188148;81;21548;-84
2022/02/02 07:04:17;;;;;;;12.98;4.45;;;;;;;2.60;100.00;96851.67;2190156;81;21039;-84
2022/02/02 07:07:40;;;;;;;11.83;4.50;;;;;;;2.65;100.00;96858.88;2205134;80;21048;-83
2022/02/02 07:10:20;;;;;;;11.78;4.95;;;;;;;2.71;100.00;96858.20;2202966;80;21560;-85
2022/02/02 07:16:36;;;;;;;15.80;5.67;;;;;;;2.76;100.00;96870.12;2167037;82;21097;-85
2022/02/02 07:26:23;;;;;;;18.12;5.92;;;;;;;2.88;100.00;96871.78;2161643;82;21081;-83
2022/02/02 07:29:35;;;;;;;13.30;6.67;;;;;;;2.87;100.00;96881.32;2163682;81;21081;-85
2022/02/02 07:32:31;;;;;;;14.35;5.90;;;;;;;2.88;100.00;96877.75;2164237;82;21124;-84
2022/02/02 07:35:44;;;;;;;13.38;5.92;;;;;;;2.87;100.00;96880.03;2166334;82;20994;-84
2022/02/02 07:38:30;;;;;;;11.08;5.78;;;;;;;2.91;100.00;96894.20;2131611;83;21028;-84
2022/02/02 07:41:33;;;;;;;14.95;5.62;;;;;;;2.93;100.00;96890.97;2138172;83;21048;-85
2022/02/02 07:44:33;;;;;;;9.75;5.60;;;;;;;2.93;100.00;96900.52;2136606;83;20977;-84
2022/02/02 07:47:34;;;;;;;21.87;6.65;;;;;;;2.95;100.00;96899.34;2140563;83;21029;-84
2022/02/02 07:50:36;;;;;;;11.63;6.50;;;;;;;2.98;100.00;96904.65;2140549;83;20989;-84
2022/02/02 07:53:41;;;;;;;7.50;3.87;;;;;;;3.01;100.00;96907.67;2140812;83;21012;-84
2022/02/02 07:56:42;;;;;;;6.80;3.67;;;;;;;3.06;100.00;96911.05;2139883;83;21045;-84
2022/02/02 07:59:56;;;;;;;9.25;3.55;;;;;;;3.08;100.00;96908.59;2140574;83;21028;-83
2022/02/02 08:03:12;;;;;;;7.62;3.70;;;;;;;3.13;100.00;96911.46;2140753;83;21128;-84
2022/02/02 08:06:12;;;;;;;5.78;3.60;;;;;;;3.19;100.00;96906.55;2138558;83;21013;-84
2022/02/02 08:09:22;;;;;;;7.22;3.90;;;;;;;3.23;100.00;96918.97;2139003;82;21081;-84
2022/02/02 08:12:19;;;;;;;7.67;3.37;;;;;;;3.26;100.00;96922.48;2135658;83;21033;-84
2022/02/02 08:15:20;;;;;;;13.10;4.53;;;;;;;3.28;100.00;96917.93;2145875;82;20999;-85
2022/02/02 08:18:21;;;;;;;10.82;3.85;;;;;;;3.31;100.00;96933.11;2148689;82;21013;-86
2022/02/02 08:21:22;;;;;;;7.90;4.83;;;;;;;3.31;100.00;96939.58;2143881;82;21459;-84
2022/02/02 08:24:24;;;;;;;9.60;5.45;;;;;;;3.34;100.00;96945.69;2172634;81;21020;-85
2022/02/02 08:27:24;;;;;;;9.33;4.60;;;;;;;3.32;100.00;96955.41;2114794;84;21540;-85
2022/02/02 08:30:27;;;;;;;8.13;3.98;;;;;;;3.35;100.00;96946.48;2129075;83;20981;-83
2022/02/02 08:33:33;;;;;;;8.25;3.55;;;;;;;3.42;100.00;96951.28;2124429;82;21083;-87
2022/02/02 08:36:32;;;;;;;5.83;3.33;;;;;;;3.50;100.00;96958.96;2127851;83;21129;-86
2022/02/02 08:42:42;;;;;;;8.78;4.65;;;;;;;3.55;100.00;96959.22;2128598;84;21028;-86
2022/02/02 08:45:45;;;;;;;8.45;3.85;;;;;;;3.60;100.00;96960.80;2196136;81;20976;-86
2022/02/02 08:48:47;;;;;;;8.20;4.58;;;;;;;3.66;100.00;96958.80;2182253;81;21515;-90
2022/02/02 08:51:48;;;;;;;6.92;3.65;;;;;;;3.68;100.00;96959.41;2182379;81;21628;-87
2022/02/02 08:54:56;;;;;;;6.28;3.10;;;;;;;3.72;100.00;96974.09;2182291;81;21017;-90
2022/02/02 08:58:19;;;;;;;7.58;3.52;;;;;;;3.76;100.00;96977.94;2187228;81;21469;-85
2022/02/02 09:01:03;;;;;;;4.53;2.98;;;;;;;3.80;100.00;96988.23;2199721;81;21061;-86
2022/02/02 09:07:22;;;;;;;8.83;3.55;;;;;;;3.66;100.00;97000.21;2191330;81;21053;-87
2022/02/02 09:20:00;;;;;;;8.25;3.47;;;;;;;3.59;100.00;96994.62;2197295;80;21573;-87
2022/02/02 09:23:32;;;;;;;5.85;2.67;;;;;;;4.08;100.00;97001.36;2194519;81;21116;-85
2022/02/02 09:36:20;;;;;;;6.40;3.30;;;;;;;4.12;100.00;97019.95;2210707;80;21016;-83
2022/02/02 09:39:27;;;;;;;9.65;3.33;;;;;;;4.06;100.00;97019.36;2210464;80;20974;-82
2022/02/02 09:42:22;;;;;;;8.25;3.33;;;;;;;4.04;100.00;97029.11;2185959;80;21568;-83
2022/02/02 09:45:26;;;;;;;8.28;3.77;;;;;;;3.94;100.00;97020.31;2206563;80;20969;-86
2022/02/02 09:48:31;;;;;;;5.97;3.08;;;;;;;3.88;100.00;97019.23;2212017;80;21557;-81
2022/02/02 09:51:40;;;;;;;12.53;3.37;;;;;;;3.94;100.00;97026.78;2204877;80;21577;-84
2022/02/02 09:54:57;;;;;;;5.80;2.87;;;;;;;4.06;100.00;97023.25;2201557;79;21583;-83
2022/02/02 09:57:56;;;;;;;9.00;2.95;;;;;;;4.21;100.00;97022.27;2206900;80;21061;-85
2022/02/02 10:01:15;;;;;;;10.80;3.25;;;;;;;4.34;100.00;97015.63;2206101;80;21039;-83
2022/02/02 10:04:06;;;;;;;5.25;2.65;;;;;;;4.34;100.00;97019.52;2199494;80;21129;-85
2022/02/02 10:07:22;;;;;;;11.63;3.50;;;;;;;4.31;100.00;97014.21;2194448;81;21009;-83
2022/02/02 10:14:03;;;;;;;14.75;5.85;;;;;;;4.38;100.00;97030.62;2203165;81;21097;-86
2022/02/02 10:16:30;;;;;;;19.05;11.93;;;;;;;4.42;100.00;97029.29;2185444;81;21008;-89
2022/02/02 10:19:32;;;;;;;13.10;6.55;;;;;;;4.51;100.00;97023.02;2200166;80;21001;-86
2022/02/02 10:22:33;;;;;;;14.03;7.37;;;;;;;4.48;100.00;97031.16;2211188;80;20981;-86
2022/02/02 10:25:35;;;;;;;9.48;4.53;;;;;;;4.50;100.00;97025.30;2212964;80;21004;-84
2022/02/02 10:28:36;;;;;;;13.28;4.67;;;;;;;4.59;100.00;97036.86;2216467;80;21012;-84
2022/02/02 10:31:37;;;;;;;10.30;4.67;;;;;;;4.69;100.00;97038.17;2212702;80;20955;-81
2022/02/02 10:34:38;;;;;;;9.30;3.37;;;;;;;4.76;100.00;97031.27;2204615;80;20969;-81
2022/02/02 10:37:40;;;;;;;11.85;5.67;;;;;;;4.96;100.00;97029.37;2174705;82;21044;-83
2022/02/02 10:40:50;;;;;;;8.73;3.52;;;;;;;5.04;100.00;97042.23;2212031;80;21029;-83
2022/02/02 10:43:53;;;;;;;8.35;3.20;;;;;;;5.06;100.00;97028.57;2199633;80;21532;-84
2022/02/02 10:47:05;;;;;;;5.45;3.17;;;;;;;4.99;100.00;97045.36;2150461;82;21037;-85
2022/02/02 10:50:09;;;;;;;12.15;3.58;;;;;;;4.88;100.00;97040.66;2210105;80;21509;-83
2022/02/02 10:56:30;;;;;;;9.95;3.40;;;;;;;4.61;100.00;97048.64;2126034;84;21089;-84
2022/02/02 10:59:28;;;;;;;7.67;3.65;;;;;;;4.52;100.00;97052.33;2126112;84;21069;-83
2022/02/02 11:09:01;;;;;;;6.15;2.90;;;;;;;4.19;100.00;97051.41;2126939;82;21597;-84
2022/02/02 11:12:02;;;;;;;9.83;3.80;;;;;;;4.25;100.00;97062.36;2112934;83;21081;-84
2022/02/02 11:15:04;;;;;;;4.87;2.77;;;;;;;4.36;100.00;97065.48;2111484;84;21026;-83
2022/02/02 11:18:04;;;;;;;5.92;3.20;;;;;;;4.44;100.00;97064.89;2111562;84;21077;-83
2022/02/02 11:21:06;;;;;;;10.88;3.27;;;;;;;4.58;100.00;97067.17;2111507;84;21030;-83
2022/02/02 11:24:06;;;;;;;12.90;3.60;;;;;;;4.68;100.00;97070.27;2113244;83;21048;-84
2022/02/02 11:27:09;;;;;;;11.85;3.70;;;;;;;4.71;100.00;97075.09;2120716;84;21029;-89
2022/02/02 11:30:10;;;;;;;10.03;4.25;;;;;;;4.72;100.00;97077.19;2107017;83;21655;-85
2022/02/02 11:33:11;;;;;;;11.85;4.87;;;;;;;4.70;100.00;97073.98;2160608;81;21116;-88
2022/02/02 11:36:15;;;;;;;12.23;3.95;;;;;;;4.67;100.00;97079.04;2202136;81;20967;-87
2022/02/02 11:39:14;;;;;;;9.03;3.85;;;;;;;4.70;100.00;97072.68;2209727;80;21033;-84
2022/02/02 11:42:19;;;;;;;6.42;3.77;;;;;;;4.68;100.00;97072.87;2210527;80;21084;-84
2022/02/02 11:45:17;;;;;;;8.90;3.45;;;;;;;4.72;100.00;97076.69;2199534;80;21034;-82
2022/02/02 11:48:20;;;;;;;6.85;3.20;;;;;;;4.82;100.00;97077.70;2168731;81;21530;-85
2022/02/02 11:51:21;;;;;;;12.05;4.15;;;;;;;4.96;100.00;97081.25;2197672;80;21061;-84
2022/02/02 11:54:22;;;;;;;8.05;3.42;;;;;;;5.12;100.00;97090.91;2202286;80;21387;-83
2022/02/02 11:57:26;;;;;;;7.15;3.52;;;;;;;5.23;100.00;97090.91;2188885;80;20977;-83
2022/02/02 12:03:37;;;;;;;9.93;4.35;;;;;;;5.21;100.00;97098.55;2203906;80;21044;-84
2022/02/02 12:06:54;;;;;;;7.83;4.25;;;;;;;5.11;100.00;97099.66;2210660;80;20951;-83
2022/02/02 12:09:46;;;;;;;9.65;4.97;;;;;;;4.95;100.00;97109.48;2190343;80;21085;-83
2022/02/02 12:36:02;;;;;;;12.33;5.05;;;;;;;4.02;100.00;97142.41;2143579;83;21085;-80
2022/02/02 12:49:06;;;;;;;12.10;5.53;;;;;;;4.05;100.00;97163.61;2111569;84;21607;-80
2022/02/02 13:01:09;;;;;;;10.30;5.67;;;;;;;4.10;100.00;97187.18;2112504;84;20999;-79
2022/02/02 13:04:10;;;;;;;12.25;6.97;;;;;;;4.09;100.00;97201.12;2112269;84;21141;-79
2022/02/02 13:07:11;;;;;;;24.25;11.90;;;;;;;4.10;100.00;97204.51;2112488;84;20998;-79
2022/02/02 13:10:20;;;;;;;18.98;8.20;;;;;;;4.10;100.00;97219.56;2098855;84;21065;-81
2022/02/02 13:13:27;;;;;;;10.25;4.30;;;;;;;4.00;100.00;97237.13;2086601;85;21058;-79
2022/02/02 13:16:26;;;;;;;7.17;3.80;;;;;;;3.75;100.00;97257.70;2095278;85;21085;-79
2022/02/02 13:19:30;;;;;;;8.20;4.10;;;;;;;3.51;100.00;97263.34;2095206;85;21114;-79
2022/02/02 13:22:30;;;;;;;12.25;5.95;;;;;;;3.37;100.00;97269.23;2094522;85;21045;-80
2022/02/02 13:25:32;;;;;;;12.63;6.00;;;;;;;3.30;100.00;97269.61;2101611;84;21131;-80
2022/02/02 13:28:32;;;;;;;12.68;6.35;;;;;;;3.26;100.00;97277.38;2131917;83;21040;-80
2022/02/02 13:31:39;;;;;;;23.67;12.07;;;;;;;3.22;100.00;97279.50;2150942;83;21000;-80
2022/02/02 13:37:48;;;;;;;17.75;7.20;;;;;;;3.05;100.00;97304.61;2151117;83;20939;-80
2022/02/02 13:47:33;;;;;;;14.65;7.37;;;;;;;2.73;100.00;97308.05;2151663;83;21584;-80
2022/02/02 13:50:35;;;;;;;10.68;6.90;;;;;;;2.62;100.00;97317.45;2146780;83;21009;-80
2022/02/02 13:53:34;;;;;;;12.90;6.65;;;;;;;2.52;100.00;97327.15;2146797;83;21722;-80
2022/02/02 14:31:39;;;;;;;5.83;4.08;;;;;;;2.10;100.00;97420.24;2075706;86;21140;-81
2022/02/02 14:34:39;;;;;;;9.23;5.75;;;;;;;2.04;100.00;97425.56;2068551;86;21124;-80
2022/02/02 14:37:44;;;;;;;4.95;3.77;;;;;;;1.97;100.00;97429.73;2024377;86;21150;-79
2022/02/02 14:43:55;;;;;;;5.37;4.50;;;;;;;1.93;100.00;97442.64;2086257;85;20976;-78
2022/02/02 14:47:04;;;;;;;8.70;6.45;;;;;;;1.92;100.00;97452.62;2086241;85;21098;-80
2022/02/02 14:50:10;;;;;;;10.95;7.12;;;;;;;1.88;100.00;97461.16;2085372;85;21098;-82
2022/02/02 15:09:49;;;;;;;23.22;13.05;;;;;;;1.86;100.00;97497.95;2038556;87;21583;-81
2022/02/02 15:26:40;;;;;;;18.77;13.08;;;;;;;1.85;100.00;97547.95;2046000;86;21155;-81
2022/02/02 15:28:52;;;;;;;24.60;14.70;;;;;;;1.85;100.00;97556.19;2033518;87;21519;-82
2022/02/02 15:31:52;;;;;;;25.27;14.95;;;;;;;1.81;100.00;97566.47;2032646;86;21111;-82
2022/02/02 15:34:57;;;;;;;21.07;14.07;;;;;;;1.78;100.00;97565.48;2063415;85;21045;-81
2022/02/02 15:41:05;;;;;;;28.02;14.85;;;;;;;1.79;100.00;97581.30;2080799;85;21043;-81
2022/02/02 16:03:48;;;;;;;39.50;21.50;;;;;;;1.96;100.00;97636.77;1980905;88;21536;-81
2022/02/02 16:06:50;;;;;;;44.98;23.95;;;;;;;1.99;100.00;97635.16;1968066;90;21005;-80
2022/02/02 16:09:53;;;;;;;35.68;21.42;;;;;;;2.03;100.00;97650.37;1984987;89;21187;-80
2022/02/02 16:12:53;;;;;;;37.23;23.38;;;;;;;2.07;100.00;97652.48;1983523;90;21102;-81
2022/02/02 16:15:57;;;;;;;31.27;19.62;;;;;;;2.09;100.00;97658.30;1983635;90;21133;-82
2022/02/02 16:19:01;;;;;;;28.25;16.02;;;;;;;2.10;100.00;97662.98;1983238;90;21057;-81
2022/02/02 16:32:12;;;;;;;26.12;15.20;;;;;;;2.04;100.00;97700.56;2001406;89;21104;-82
2022/02/02 16:38:01;;;;;;;33.00;18.90;;;;;;;2.02;100.00;97722.34;1932165;92;21697;-80
2022/02/02 16:41:09;;;;;;;40.40;22.37;;;;;;;2.02;100.00;97724.92;2006798;88;21708;-81
2022/02/02 16:44:05;;;;;;;30.72;20.32;;;;;;;2.04;100.00;97731.55;2016066;88;21001;-81
2022/02/02 16:47:13;;;;;;;42.73;23.50;;;;;;;2.02;100.00;97738.64;2004381;89;21566;-81
2022/02/02 16:50:18;;;;;;;33.63;21.35;;;;;;;2.08;100.00;97747.55;2006915;89;21132;-81
2022/02/02 16:56:31;;;;;;;34.53;19.10;;;;;;;2.10;100.00;97750.78;2006520;88;21062;-81
2022/02/02 17:32:26;;;;;;;17.20;11.25;;;;;;;1.92;100.00;97835.99;2065276;84;21178;-81
2022/02/02 17:35:27;;;;;;;20.02;12.05;;;;;;;1.91;100.00;97844.70;2094468;84;21049;-80
2022/02/02 17:38:34;;;;;;;18.67;12.63;;;;;;;1.89;100.00;97847.43;2098536;84;20977;-79
2022/02/02 17:42:01;;;;;;;32.20;14.60;;;;;;;1.88;100.00;97856.13;2092838;85;21153;-79
